ADDS METAR Data INFO
IDs: Format: Raw Decoded Include TAF

Data at: 1132 UTC 29 May 2017

KINJ 291115Z AUTO 00000KT 4SM BR SCT006 19/19 A2999 RMK AO2 T01940192
KINJ 291055Z AUTO 00000KT 4SM BR CLR 20/19 A2999 RMK AO2 T01950194
KINJ 291035Z AUTO 00000KT 4SM BR CLR 20/19 A2999 RMK AO2 T01950191
KINJ 291015Z AUTO 00000KT 5SM BR CLR 20/19 A2998 RMK AO2 T01960194
KINJ 290955Z AUTO 00000KT 5SM BR CLR 20/19 A2996 RMK AO2 T01960192
KINJ 290935Z AUTO 00000KT 7SM CLR 21/20 A2995 RMK AO2 T02050200
KINJ 290915Z AUTO 00000KT 10SM CLR 21/20 A2996 RMK AO2 LTG DSNT SE T02070200
KINJ 290855Z AUTO 00000KT 10SM CLR 21/20 A2996 RMK AO2 T02130202
KINJ 290835Z AUTO 01004KT 10SM CLR 21/20 A2995 RMK AO2 T02140204
KINJ 290815Z AUTO 36009KT 10SM CLR 22/21 A2994 RMK AO2 T02150205
KINJ 290755Z AUTO 36007KT 10SM CLR 22/21 A2996 RMK AO2 T02160206
KINJ 290735Z AUTO 36009KT 10SM CLR 22/21 A2997 RMK AO2 T02160207
KINJ 290715Z AUTO 36007KT 10SM -RA SCT120 22/21 A3000 RMK AO2 T02150206
KINJ 290655Z AUTO 35005KT 10SM -RA BKN090 OVC120 22/21 A3001 RMK AO2 T02180208
KINJ 290635Z AUTO 04003KT 10SM -DZ OVC075 22/21 A3002 RMK AO2 T02200209
KINJ 290615Z AUTO 36006KT 10SM SCT065 OVC075 22/21 A3001 RMK AO2 T02190210
KINJ 290555Z AUTO 01008KT 10SM BKN065 BKN090 OVC110 22/21 A3002 RMK AO2 60008 T02180211 10242 20218 402740218
KINJ 290535Z AUTO 01005KT 10SM SCT065 BKN080 BKN090 22/21 A3002 RMK AO2 T02180211
KINJ 290515Z AUTO 03005KT 7SM BKN080 OVC095 22/21 A3001 RMK AO2 LTG DSNT E T02180213
KINJ 290455Z AUTO 00000KT 7SM BKN070 OVC090 22/22 A3003 RMK AO2 LTG DSNT SE P0001 T02200215
KINJ 290435Z AUTO 00000KT 10SM SCT018 BKN070 OVC090 22/22 A3004 RMK AO2 LTG DSNT E AND SE T02210215
KINJ 290415Z AUTO 23003KT 10SM SCT011 SCT032 OVC070 22/21 A3006 RMK AO2 LTG DSNT E AND SE T02230212
KINJ 290355Z AUTO 00000KT 10SM -VCTSDZ SCT023 BKN036 OVC070 22/21 A3004 RMK AO2 LTG DSNT E THRU S P0006 T02210212
KINJ 290335Z AUTO 00000KT 5SM -VCTSRA SCT018 BKN027 OVC055 22/21 A3003 RMK AO2 LTG DSNT E THRU SW P0006 T02220213
KINJ 290315Z AUTO 22007KT 10SM -VCTSRA OVC055 23/21 A3002 RMK AO2 LTG DSNT E THRU SW T02260211
KINJ 290255Z AUTO 36004KT 10SM -VCTSRA BKN050 BKN065 OVC085 23/21 A3000 RMK AO2 LTG DSNT E THRU SW P0001 60001 T02300209
KINJ 290235Z AUTO 03003KT 10SM OVC048 23/21 A3000 RMK AO2 LTG DSNT ALQS T02330209
KINJ 290215Z AUTO 10004KT 10SM VCTS OVC046 24/21 A2998 RMK AO2 LTG DSNT ALQS T02350210
KINJ 290155Z AUTO 11005KT 10SM BKN044 24/21 A2998 RMK AO2 LTG DSNT E THRU SW T02350206
KINJ 290135Z AUTO 05007KT 10SM CLR 24/21 A2991 RMK AO2 LTG DSNT S T02350205
KINJ 290115Z AUTO 36011G15KT 10SM SCT038 SCT047 24/20 A2988 RMK AO2 LTG DSNT SE THRU SW T02350204
KINJ 290055Z AUTO 36011G17KT 10SM OVC038 24/21 A2989 RMK AO2 LTG DSNT SE THRU SW T02360207
KINJ 290035Z AUTO 34008KT 10SM OVC036 24/21 A2991 RMK AO2 LTG DSNT E AND SW T02380210
KINJ 290015Z AUTO 01008KT 10SM BKN036 24/21 A2993 RMK AO2 LTG DSNT E AND SW T02400209
KINJ 282355Z AUTO 36012KT 10SM SCT021 SCT029 BKN034 24/21 A2991 RMK AO2 LTG DSNT SW 60002 T02420210 10255 20225
KINJ 282335Z AUTO 35012G16KT 10SM BKN014 BKN021 OVC034 24/21 A2992 RMK AO2 LTG DSNT SW T02420214
KINJ 282315Z AUTO 34011G20KT 10SM OVC012 24/21 A2991 RMK AO2 T02380213
KINJ 282255Z AUTO 35017G21KT 10SM BKN012 25/22 A2991 RMK AO2 LTG DSNT SE AND SW T02480219
KINJ 282235Z AUTO 36011G17KT 10SM SCT012 SCT026 26/22 A2992 RMK AO2 LTG DSNT SE AND S T02550220
KINJ 282215Z AUTO 36012G18KT 10SM BKN010 BKN017 BKN026 24/22 A2991 RMK AO2 LTG DSNT E AND S T02430218
KINJ 282155Z AUTO 35009KT 10SM BKN010 BKN015 OVC023 24/22 A2993 RMK AO2 LTG DSNT NE THRU S T02440221
KINJ 282135Z AUTO 35013G16KT 10SM BKN008 BKN015 OVC023 24/22 A2994 RMK AO2 LTG DSNT NE THRU S T02410220
KINJ 282115Z AUTO 36013G17KT 10SM BKN006 OVC015 23/22 A2995 RMK AO2 LTG DSNT NE AND E T02320217
KINJ 282055Z AUTO 35013G17KT 10SM BKN006 OVC012 23/22 A2996 RMK AO2 LTG DSNT NE AND E 60002 T02310217
KINJ 282035Z AUTO 35011KT 10SM OVC006 23/22 A2996 RMK AO2 LTG DSNT NE T02320221
KINJ 282015Z AUTO 35010KT 10SM OVC006 23/22 A2995 RMK AO2 LTG DSNT NE T02310221
KINJ 281955Z AUTO 36009KT 10SM OVC004 23/22 A2996 RMK AO2 LTG DSNT N AND NE T02320222
KINJ 281935Z AUTO 35011KT 10SM OVC004 23/22 A2995 RMK AO2 LTG DSNT N T02310222
KINJ 281915Z AUTO 36011KT 7SM BKN004 OVC011 23/23 A2995 RMK AO2 LTG DSNT N T02310226
KINJ 281855Z AUTO 35008KT 5SM BR BKN004 OVC011 23/22 A2995 RMK AO2 LTG DSNT NW P0002 T02270222
KINJ 281835Z AUTO 35010KT 4SM DZ BKN004 OVC009 23/22 A2995 RMK AO2 P0002 T02250220
KINJ 281815Z AUTO 36008KT 3SM DZ SCT004 OVC014 23/22 A2994 RMK AO2 P0001 T02270222
KINJ 281755Z AUTO 35010G14KT 4SM RA OVC014 24/23 A2994 RMK AO2 T02370228 10274 20237
KINJ 281735Z AUTO 17004KT 7SM OVC018 27/24 A2993 RMK AO2 T02700236
KINJ 281715Z AUTO 16007KT 10SM OVC018 27/24 A2993 RMK AO2 T02700235
KINJ 281655Z AUTO 14008KT 10SM OVC016 27/24 A2994 RMK AO2 T02700235
KINJ 281635Z AUTO 15008KT 10SM OVC016 27/24 A2993 RMK AO2 T02660235
KINJ 281615Z AUTO 14008KT 10SM OVC016 27/23 A2993 RMK AO2 T02680234
KINJ 281555Z AUTO 14010G15KT 10SM OVC020 27/23 A2993 RMK AO2 T02700233
KINJ 281535Z AUTO 14011G15KT 10SM OVC021 27/23 A2992 RMK AO2 T02700232
KINJ 281515Z AUTO 14011KT 10SM SCT013 OVC024 26/23 A2992 RMK AO2 T02630230
KINJ 281455Z AUTO 13009KT 10SM SCT013 OVC024 26/23 A2992 RMK AO2 T02620229
KINJ 281435Z AUTO 13010G14KT 10SM SCT011 BKN023 OVC034 26/23 A2992 RMK AO2 LTG DSNT NE T02600230
KINJ 281415Z AUTO 14012KT 10SM SCT011 BKN036 OVC042 26/23 A2991 RMK AO2 T02570228
KINJ 281355Z AUTO 13008KT 10SM SCT012 BKN030 OVC044 26/23 A2990 RMK AO2 T02550230
KINJ 281335Z AUTO 13011KT 10SM BKN011 OVC029 25/23 A2990 RMK AO2 T02490228
KINJ 281315Z AUTO 12010KT 10SM BKN011 BKN029 BKN035 25/23 A2990 RMK AO2 T02460227
KINJ 281255Z AUTO 13007KT 7SM SCT012 SCT030 SCT055 25/23 A2989 RMK AO2 LTG DSNT NE T02450226
KINJ 281235Z AUTO 13007KT 7SM SCT012 SCT055 24/23 A2988 RMK AO2 T02420226
KINJ 281215Z AUTO 14005KT 7SM CLR 24/23 A2987 RMK AO2 LTG DSNT NE T02380225
KINJ 281155Z AUTO 14006KT 7SM SCT065 24/23 A2986 RMK AO2 LTG DSNT NE T02380225 10265 20238
KINJ 281135Z AUTO 13006KT 10SM SCT013 SCT032 SCT065 24/23 A2986 RMK AO2 T02380225
KINJ 281115Z AUTO 14006KT 10SM BKN013 BKN032 24/23 A2986 RMK AO2 LTG DSNT NE T02420225
KINJ 281055Z AUTO 05003KT 10SM OVC011 24/23 A2988 RMK AO2 LTG DSNT NE T02420226
KINJ 281035Z AUTO 31007KT 10SM BKN011 24/23 A2987 RMK AO2 LTG DSNT N AND NE T02410226
KINJ 281015Z AUTO 18010KT 10SM CLR 24/23 A2980 RMK AO2 LTG DSNT N AND NE T02400225
KINJ 280955Z AUTO 17013G17KT 10SM CLR 24/23 A2979 RMK AO2 LTG DSNT N T02410226
KINJ 280935Z AUTO 17010G15KT 10SM CLR 24/23 A2978 RMK AO2 LTG DSNT N AND NW T02410226
KINJ 280915Z AUTO 16011G16KT 10SM CLR 24/23 A2979 RMK AO2 LTG DSNT N AND E T02430226
KINJ 280855Z AUTO 17011G17KT 10SM CLR 25/23 A2978 RMK AO2 LTG DSNT NE T02450227
KINJ 280835Z AUTO 17012KT 10SM CLR 25/23 A2977 RMK AO2 LTG DSNT NE AND E T02450226
KINJ 280815Z AUTO 17010KT 10SM CLR 25/23 A2977 RMK AO2 T02480225
KINJ 280755Z AUTO 17011KT 10SM CLR 25/23 A2978 RMK AO2 T02500225
KINJ 280735Z AUTO 18010KT 10SM CLR 25/23 A2978 RMK AO2 LTG DSNT NE T02530225
KINJ 280715Z AUTO 17006KT 10SM CLR 26/23 A2980 RMK AO2 T02570225
KINJ 280655Z AUTO 14006KT 10SM CLR 26/23 A2980 RMK AO2 T02600225
KINJ 280635Z AUTO 17008KT 10SM CLR 26/23 A2981 RMK AO2 LTG DSNT NW T02610225
KINJ 280615Z AUTO 18010KT 10SM CLR 26/23 A2981 RMK AO2 T02640227
KINJ 280555Z AUTO 17011KT 10SM CLR 27/23 A2980 RMK AO2 T02660228 10316 20266 403230255
KINJ 280535Z AUTO 17010KT 10SM CLR 27/23 A2979 RMK AO2 T02690230
KINJ 280515Z AUTO 18012G18KT 10SM CLR 27/23 A2979 RMK AO2 T02730230
KINJ 280455Z AUTO 18015G21KT 10SM CLR 28/23 A2979 RMK AO2 T02750232
KINJ 280435Z AUTO 18016G22KT 10SM CLR 28/24 A2979 RMK AO2 T02790235
KINJ 280415Z AUTO 17014G22KT 10SM CLR 28/24 A2978 RMK AO2 T02800237
KINJ 280355Z AUTO 17015G19KT 10SM CLR 28/24 A2978 RMK AO2 T02840239
KINJ 280335Z AUTO 17012G18KT 10SM CLR 29/24 A2979 RMK AO2 T02860240
KINJ 280315Z AUTO 17013G17KT 10SM CLR 29/24 A2979 RMK AO2 T02880240
KINJ 280255Z AUTO 16009KT 10SM CLR 29/24 A2979 RMK AO2 T02900240
KINJ 280235Z AUTO 16009G15KT 10SM CLR 29/24 A2979 RMK AO2 T02920241
KINJ 280215Z AUTO 16010KT 7SM CLR 29/24 A2979 RMK AO2 T02920242
KINJ 280155Z AUTO 16010KT 7SM CLR 29/25 A2978 RMK AO2 T02940245
KINJ 280135Z AUTO 15006KT 7SM CLR 30/25 A2978 RMK AO2 T02950247
KINJ 280115Z AUTO 15005KT 7SM SCT048 30/25 A2979 RMK AO2 T03020246
KINJ 280055Z AUTO 17007KT 7SM BKN048 31/25 A2978 RMK AO2 T03100247
KINJ 280035Z AUTO 17009KT 7SM SCT048 31/25 A2979 RMK AO2 T03120246
KINJ 280015Z AUTO 18010KT 7SM SCT048 32/25 A2979 RMK AO2 T03150245
KINJ 272355Z AUTO 18012G17KT 7SM SCT048 32/25 A2979 RMK AO2 T03150245 10323 20288
KINJ 272335Z AUTO 18015KT 7SM CLR 32/25 A2979 RMK AO2 T03200245


Page loaded:  11:32 UTC  |   04:32 AM Pacific  |   05:32 AM Mountain  |   06:32 AM Central  |   07:32 AM Eastern

 

ADVISORIES

FORECASTS

FORECASTS

OBSERVATIONS

USER TOOLS

ABOUT US